sensor_id;sensor_type;location;lat;lon;timestamp;P1;durP1;ratioP1;P2;durP2;ratioP2
34497;SDS011;20744;50.938;7.286;2023-10-31T00:01:00;4.97;;;1.48;;
34497;SDS011;20744;50.938;7.286;2023-10-31T00:03:28;4.78;;;1.52;;
34497;SDS011;20744;50.938;7.286;2023-10-31T00:05:58;2.53;;;1.60;;
34497;SDS011;20744;50.938;7.286;2023-10-31T00:08:25;2.08;;;1.15;;
34497;SDS011;20744;50.938;7.286;2023-10-31T00:10:52;2.28;;;1.45;;
34497;SDS011;20744;50.938;7.286;2023-10-31T00:13:26;7.88;;;1.73;;
34497;SDS011;20744;50.938;7.286;2023-10-31T00:15:54;4.97;;;1.50;;
34497;SDS011;20744;50.938;7.286;2023-10-31T00:18:21;5.00;;;1.65;;
34497;SDS011;20744;50.938;7.286;2023-10-31T00:20:49;2.15;;;1.52;;
34497;SDS011;20744;50.938;7.286;2023-10-31T00:23:16;2.53;;;1.45;;
34497;SDS011;20744;50.938;7.286;2023-10-31T00:25:43;4.40;;;1.40;;
34497;SDS011;20744;50.938;7.286;2023-10-31T00:28:10;3.42;;;1.80;;
34497;SDS011;20744;50.938;7.286;2023-10-31T00:30:39;6.40;;;2.00;;
34497;SDS011;20744;50.938;7.286;2023-10-31T00:33:06;3.20;;;2.10;;
34497;SDS011;20744;50.938;7.286;2023-10-31T00:35:33;4.28;;;2.20;;
34497;SDS011;20744;50.938;7.286;2023-10-31T00:38:01;2.83;;;1.90;;
34497;SDS011;20744;50.938;7.286;2023-10-31T00:40:28;4.35;;;2.40;;
34497;SDS011;20744;50.938;7.286;2023-10-31T00:42:55;4.45;;;2.70;;
34497;SDS011;20744;50.938;7.286;2023-10-31T00:45:24;2.67;;;2.40;;
34497;SDS011;20744;50.938;7.286;2023-10-31T00:47:59;3.90;;;2.75;;
34497;SDS011;20744;50.938;7.286;2023-10-31T00:50:26;5.43;;;3.58;;
34497;SDS011;20744;50.938;7.286;2023-10-31T00:52:53;5.95;;;3.53;;
34497;SDS011;20744;50.938;7.286;2023-10-31T00:55:20;3.63;;;3.33;;
34497;SDS011;20744;50.938;7.286;2023-10-31T00:57:48;6.10;;;3.25;;
34497;SDS011;20744;50.938;7.286;2023-10-31T01:00:16;6.68;;;3.22;;
34497;SDS011;20744;50.938;7.286;2023-10-31T01:02:43;5.65;;;3.40;;
34497;SDS011;20744;50.938;7.286;2023-10-31T01:05:12;4.93;;;3.10;;
34497;SDS011;20744;50.938;7.286;2023-10-31T01:07:39;7.60;;;3.08;;
34497;SDS011;20744;50.938;7.286;2023-10-31T01:10:07;4.18;;;2.88;;
34497;SDS011;20744;50.938;7.286;2023-10-31T01:12:35;6.10;;;3.00;;
34497;SDS011;20744;50.938;7.286;2023-10-31T01:15:03;4.63;;;3.28;;
34497;SDS011;20744;50.938;7.286;2023-10-31T01:17:30;4.00;;;3.25;;
34497;SDS011;20744;50.938;7.286;2023-10-31T01:19:58;4.43;;;3.15;;
34497;SDS011;20744;50.938;7.286;2023-10-31T01:22:26;4.70;;;2.42;;
34497;SDS011;20744;50.938;7.286;2023-10-31T01:24:53;6.15;;;2.78;;
34497;SDS011;20744;50.938;7.286;2023-10-31T01:27:21;5.53;;;2.13;;
34497;SDS011;20744;50.938;7.286;2023-10-31T01:29:48;3.60;;;2.05;;
34497;SDS011;20744;50.938;7.286;2023-10-31T01:32:15;2.97;;;2.08;;
34497;SDS011;20744;50.938;7.286;2023-10-31T01:34:43;7.45;;;2.20;;
34497;SDS011;20744;50.938;7.286;2023-10-31T01:37:10;7.47;;;2.58;;
34497;SDS011;20744;50.938;7.286;2023-10-31T01:39:40;6.45;;;2.40;;
34497;SDS011;20744;50.938;7.286;2023-10-31T01:42:07;3.63;;;2.13;;
34497;SDS011;20744;50.938;7.286;2023-10-31T01:44:34;5.30;;;2.95;;
34497;SDS011;20744;50.938;7.286;2023-10-31T01:47:02;3.97;;;2.67;;
34497;SDS011;20744;50.938;7.286;2023-10-31T01:49:29;4.63;;;2.30;;
34497;SDS011;20744;50.938;7.286;2023-10-31T01:51:57;5.20;;;2.40;;
34497;SDS011;20744;50.938;7.286;2023-10-31T01:54:27;9.95;;;3.00;;
34497;SDS011;20744;50.938;7.286;2023-10-31T01:56:55;9.02;;;2.92;;
34497;SDS011;20744;50.938;7.286;2023-10-31T01:59:23;8.40;;;2.90;;
34497;SDS011;20744;50.938;7.286;2023-10-31T02:01:51;5.43;;;2.85;;
34497;SDS011;20744;50.938;7.286;2023-10-31T02:04:18;6.15;;;2.58;;
34497;SDS011;20744;50.938;7.286;2023-10-31T02:06:45;5.63;;;2.88;;
34497;SDS011;20744;50.938;7.286;2023-10-31T02:09:13;5.70;;;2.80;;
34497;SDS011;20744;50.938;7.286;2023-10-31T02:11:40;5.93;;;2.58;;
34497;SDS011;20744;50.938;7.286;2023-10-31T02:14:09;6.43;;;2.95;;
34497;SDS011;20744;50.938;7.286;2023-10-31T02:16:36;5.38;;;2.60;;
34497;SDS011;20744;50.938;7.286;2023-10-31T02:19:03;6.15;;;2.95;;
34497;SDS011;20744;50.938;7.286;2023-10-31T02:21:31;9.82;;;2.70;;
34497;SDS011;20744;50.938;7.286;2023-10-31T02:24:01;10.32;;;2.90;;
34497;SDS011;20744;50.938;7.286;2023-10-31T02:26:29;6.65;;;2.70;;
34497;SDS011;20744;50.938;7.286;2023-10-31T02:28:56;9.70;;;2.60;;
34497;SDS011;20744;50.938;7.286;2023-10-31T02:31:23;7.72;;;2.65;;
34497;SDS011;20744;50.938;7.286;2023-10-31T02:33:51;6.00;;;2.33;;
34497;SDS011;20744;50.938;7.286;2023-10-31T02:36:18;6.32;;;2.67;;
34497;SDS011;20744;50.938;7.286;2023-10-31T02:38:46;8.43;;;2.30;;
34497;SDS011;20744;50.938;7.286;2023-10-31T02:41:15;7.70;;;2.65;;
34497;SDS011;20744;50.938;7.286;2023-10-31T02:43:42;4.00;;;2.20;;
34497;SDS011;20744;50.938;7.286;2023-10-31T02:46:09;9.02;;;2.45;;
34497;SDS011;20744;50.938;7.286;2023-10-31T02:48:37;10.70;;;2.85;;
34497;SDS011;20744;50.938;7.286;2023-10-31T02:51:05;7.82;;;2.53;;
34497;SDS011;20744;50.938;7.286;2023-10-31T02:53:32;10.35;;;3.00;;
34497;SDS011;20744;50.938;7.286;2023-10-31T02:56:00;6.32;;;2.50;;
34497;SDS011;20744;50.938;7.286;2023-10-31T02:58:29;6.53;;;2.30;;
34497;SDS011;20744;50.938;7.286;2023-10-31T03:00:56;5.22;;;2.25;;
34497;SDS011;20744;50.938;7.286;2023-10-31T03:03:23;10.93;;;2.63;;
34497;SDS011;20744;50.938;7.286;2023-10-31T03:05:50;8.45;;;3.10;;
34497;SDS011;20744;50.938;7.286;2023-10-31T03:08:18;7.13;;;2.80;;
34497;SDS011;20744;50.938;7.286;2023-10-31T03:10:47;6.75;;;3.17;;
34497;SDS011;20744;50.938;7.286;2023-10-31T03:13:16;8.93;;;3.03;;
34497;SDS011;20744;50.938;7.286;2023-10-31T03:15:46;11.30;;;3.97;;
34497;SDS011;20744;50.938;7.286;2023-10-31T03:18:14;10.90;;;3.55;;
34497;SDS011;20744;50.938;7.286;2023-10-31T03:20:43;9.00;;;3.10;;
34497;SDS011;20744;50.938;7.286;2023-10-31T03:23:10;9.30;;;3.15;;
34497;SDS011;20744;50.938;7.286;2023-10-31T03:25:37;8.15;;;3.20;;
34497;SDS011;20744;50.938;7.286;2023-10-31T03:28:07;3.80;;;2.80;;
34497;SDS011;20744;50.938;7.286;2023-10-31T03:30:34;6.40;;;2.85;;
34497;SDS011;20744;50.938;7.286;2023-10-31T03:33:03;11.25;;;3.53;;
34497;SDS011;20744;50.938;7.286;2023-10-31T03:35:30;6.65;;;2.92;;
34497;SDS011;20744;50.938;7.286;2023-10-31T03:37:58;8.40;;;2.97;;
34497;SDS011;20744;50.938;7.286;2023-10-31T03:40:25;7.15;;;2.83;;
34497;SDS011;20744;50.938;7.286;2023-10-31T03:42:52;7.47;;;2.92;;
34497;SDS011;20744;50.938;7.286;2023-10-31T03:45:19;9.02;;;2.90;;
34497;SDS011;20744;50.938;7.286;2023-10-31T03:47:47;6.20;;;2.97;;
34497;SDS011;20744;50.938;7.286;2023-10-31T03:50:15;11.07;;;3.25;;
34497;SDS011;20744;50.938;7.286;2023-10-31T03:52:43;12.40;;;3.30;;
34497;SDS011;20744;50.938;7.286;2023-10-31T03:55:10;13.00;;;3.80;;
34497;SDS011;20744;50.938;7.286;2023-10-31T03:57:37;12.55;;;3.95;;
34497;SDS011;20744;50.938;7.286;2023-10-31T04:00:05;8.65;;;4.72;;
34497;SDS011;20744;50.938;7.286;2023-10-31T04:02:33;13.75;;;4.65;;
34497;SDS011;20744;50.938;7.286;2023-10-31T04:05:00;8.82;;;4.72;;
34497;SDS011;20744;50.938;7.286;2023-10-31T04:07:29;11.13;;;4.75;;
34497;SDS011;20744;50.938;7.286;2023-10-31T04:09:56;10.73;;;5.50;;
34497;SDS011;20744;50.938;7.286;2023-10-31T04:12:23;11.07;;;4.60;;
34497;SDS011;20744;50.938;7.286;2023-10-31T04:14:50;8.07;;;4.65;;
34497;SDS011;20744;50.938;7.286;2023-10-31T04:17:18;9.70;;;5.07;;
34497;SDS011;20744;50.938;7.286;2023-10-31T04:19:48;7.32;;;4.15;;
34497;SDS011;20744;50.938;7.286;2023-10-31T04:22:15;11.20;;;4.38;;
34497;SDS011;20744;50.938;7.286;2023-10-31T04:24:44;7.80;;;4.00;;
34497;SDS011;20744;50.938;7.286;2023-10-31T04:27:11;10.75;;;3.90;;
34497;SDS011;20744;50.938;7.286;2023-10-31T04:29:38;11.15;;;3.97;;
34497;SDS011;20744;50.938;7.286;2023-10-31T04:32:06;6.72;;;3.72;;
34497;SDS011;20744;50.938;7.286;2023-10-31T04:34:33;8.77;;;3.25;;
34497;SDS011;20744;50.938;7.286;2023-10-31T04:37:00;8.15;;;3.28;;
34497;SDS011;20744;50.938;7.286;2023-10-31T04:39:27;7.70;;;2.78;;
34497;SDS011;20744;50.938;7.286;2023-10-31T04:41:56;8.13;;;2.78;;
34497;SDS011;20744;50.938;7.286;2023-10-31T04:44:23;8.27;;;2.78;;
34497;SDS011;20744;50.938;7.286;2023-10-31T04:46:51;9.50;;;1.77;;
34497;SDS011;20744;50.938;7.286;2023-10-31T04:49:18;5.65;;;2.05;;
34497;SDS011;20744;50.938;7.286;2023-10-31T04:51:45;5.82;;;2.10;;
34497;SDS011;20744;50.938;7.286;2023-10-31T04:54:13;9.82;;;1.90;;
34497;SDS011;20744;50.938;7.286;2023-10-31T04:56:40;6.30;;;1.80;;
34497;SDS011;20744;50.938;7.286;2023-10-31T04:59:09;9.30;;;1.83;;
34497;SDS011;20744;50.938;7.286;2023-10-31T05:01:36;4.07;;;1.58;;
34497;SDS011;20744;50.938;7.286;2023-10-31T05:04:06;12.00;;;1.92;;
34497;SDS011;20744;50.938;7.286;2023-10-31T05:06:33;7.57;;;1.73;;
34497;SDS011;20744;50.938;7.286;2023-10-31T05:09:00;4.30;;;1.52;;
34497;SDS011;20744;50.938;7.286;2023-10-31T05:11:28;7.30;;;1.30;;
34497;SDS011;20744;50.938;7.286;2023-10-31T05:13:55;8.95;;;1.80;;
34497;SDS011;20744;50.938;7.286;2023-10-31T05:16:24;4.25;;;1.42;;
34497;SDS011;20744;50.938;7.286;2023-10-31T05:18:51;5.70;;;1.52;;
34497;SDS011;20744;50.938;7.286;2023-10-31T05:21:18;6.40;;;1.58;;
34497;SDS011;20744;50.938;7.286;2023-10-31T05:23:46;4.75;;;1.80;;
34497;SDS011;20744;50.938;7.286;2023-10-31T05:26:14;4.78;;;1.50;;
34497;SDS011;20744;50.938;7.286;2023-10-31T05:28:41;9.90;;;1.60;;
34497;SDS011;20744;50.938;7.286;2023-10-31T05:31:09;4.97;;;1.90;;
34497;SDS011;20744;50.938;7.286;2023-10-31T05:33:38;10.43;;;2.58;;
34497;SDS011;20744;50.938;7.286;2023-10-31T05:36:06;7.63;;;2.00;;
34497;SDS011;20744;50.938;7.286;2023-10-31T05:38:33;7.40;;;2.03;;
34497;SDS011;20744;50.938;7.286;2023-10-31T05:41:01;5.78;;;1.88;;
34497;SDS011;20744;50.938;7.286;2023-10-31T05:43:28;7.60;;;2.00;;
34497;SDS011;20744;50.938;7.286;2023-10-31T05:45:55;10.45;;;2.20;;
34497;SDS011;20744;50.938;7.286;2023-10-31T05:48:22;8.52;;;1.80;;
34497;SDS011;20744;50.938;7.286;2023-10-31T05:50:51;4.25;;;1.75;;
34497;SDS011;20744;50.938;7.286;2023-10-31T05:53:18;3.00;;;1.95;;
34497;SDS011;20744;50.938;7.286;2023-10-31T05:55:45;8.95;;;2.22;;
34497;SDS011;20744;50.938;7.286;2023-10-31T05:58:13;3.15;;;1.63;;
34497;SDS011;20744;50.938;7.286;2023-10-31T06:00:40;4.88;;;1.83;;
34497;SDS011;20744;50.938;7.286;2023-10-31T06:03:07;4.50;;;1.80;;
34497;SDS011;20744;50.938;7.286;2023-10-31T06:05:35;2.30;;;1.63;;
34497;SDS011;20744;50.938;7.286;2023-10-31T06:08:04;4.50;;;1.58;;
34497;SDS011;20744;50.938;7.286;2023-10-31T06:10:31;3.92;;;1.88;;
34497;SDS011;20744;50.938;7.286;2023-10-31T06:12:58;2.55;;;1.40;;
34497;SDS011;20744;50.938;7.286;2023-10-31T06:15:25;3.63;;;1.50;;
34497;SDS011;20744;50.938;7.286;2023-10-31T06:17:52;6.82;;;1.60;;
34497;SDS011;20744;50.938;7.286;2023-10-31T06:20:20;4.68;;;1.95;;
34497;SDS011;20744;50.938;7.286;2023-10-31T06:22:47;5.75;;;1.80;;
34497;SDS011;20744;50.938;7.286;2023-10-31T06:25:16;2.03;;;1.40;;
34497;SDS011;20744;50.938;7.286;2023-10-31T06:27:43;3.90;;;1.70;;
34497;SDS011;20744;50.938;7.286;2023-10-31T06:30:10;3.92;;;1.50;;
34497;SDS011;20744;50.938;7.286;2023-10-31T06:32:38;2.97;;;1.30;;
34497;SDS011;20744;50.938;7.286;2023-10-31T06:35:06;4.05;;;1.80;;
34497;SDS011;20744;50.938;7.286;2023-10-31T06:37:33;3.67;;;1.75;;
34497;SDS011;20744;50.938;7.286;2023-10-31T06:40:01;4.18;;;1.80;;
34497;SDS011;20744;50.938;7.286;2023-10-31T06:42:30;3.80;;;2.10;;
34497;SDS011;20744;50.938;7.286;2023-10-31T06:44:57;4.13;;;1.90;;
34497;SDS011;20744;50.938;7.286;2023-10-31T06:47:24;3.22;;;1.77;;
34497;SDS011;20744;50.938;7.286;2023-10-31T06:49:52;6.35;;;2.10;;
34497;SDS011;20744;50.938;7.286;2023-10-31T06:52:19;3.78;;;2.20;;
34497;SDS011;20744;50.938;7.286;2023-10-31T06:54:46;4.28;;;2.20;;
34497;SDS011;20744;50.938;7.286;2023-10-31T06:57:14;2.70;;;1.98;;
34497;SDS011;20744;50.938;7.286;2023-10-31T06:59:43;3.33;;;2.17;;
34497;SDS011;20744;50.938;7.286;2023-10-31T07:02:11;3.72;;;2.22;;
34497;SDS011;20744;50.938;7.286;2023-10-31T07:04:39;4.50;;;2.45;;
34497;SDS011;20744;50.938;7.286;2023-10-31T07:07:06;4.88;;;2.47;;
34497;SDS011;20744;50.938;7.286;2023-10-31T07:09:33;3.35;;;2.60;;
34497;SDS011;20744;50.938;7.286;2023-10-31T07:12:01;6.43;;;2.60;;
34497;SDS011;20744;50.938;7.286;2023-10-31T07:14:28;4.35;;;2.60;;
34497;SDS011;20744;50.938;7.286;2023-10-31T07:16:57;4.45;;;2.67;;
34497;SDS011;20744;50.938;7.286;2023-10-31T07:19:24;3.67;;;2.42;;
34497;SDS011;20744;50.938;7.286;2023-10-31T07:21:53;5.80;;;3.05;;
34497;SDS011;20744;50.938;7.286;2023-10-31T07:24:20;6.72;;;2.90;;
34497;SDS011;20744;50.938;7.286;2023-10-31T07:26:47;4.43;;;2.70;;
34497;SDS011;20744;50.938;7.286;2023-10-31T07:29:15;5.00;;;2.80;;
34497;SDS011;20744;50.938;7.286;2023-10-31T07:31:42;3.95;;;2.78;;
34497;SDS011;20744;50.938;7.286;2023-10-31T07:34:10;5.70;;;3.22;;
34497;SDS011;20744;50.938;7.286;2023-10-31T07:36:38;5.75;;;3.72;;
34497;SDS011;20744;50.938;7.286;2023-10-31T07:39:06;7.18;;;3.65;;
34497;SDS011;20744;50.938;7.286;2023-10-31T07:41:36;5.60;;;3.40;;
34497;SDS011;20744;50.938;7.286;2023-10-31T07:44:04;3.95;;;3.45;;
34497;SDS011;20744;50.938;7.286;2023-10-31T07:46:31;6.22;;;3.67;;
34497;SDS011;20744;50.938;7.286;2023-10-31T07:48:58;6.93;;;4.30;;
34497;SDS011;20744;50.938;7.286;2023-10-31T07:51:27;4.88;;;3.80;;
34497;SDS011;20744;50.938;7.286;2023-10-31T07:53:54;6.55;;;4.35;;
34497;SDS011;20744;50.938;7.286;2023-10-31T07:56:23;10.77;;;5.13;;
34497;SDS011;20744;50.938;7.286;2023-10-31T07:58:50;7.88;;;5.22;;
34497;SDS011;20744;50.938;7.286;2023-10-31T08:01:18;7.32;;;4.90;;
34497;SDS011;20744;50.938;7.286;2023-10-31T08:03:45;6.97;;;5.10;;
34497;SDS011;20744;50.938;7.286;2023-10-31T08:06:13;9.48;;;5.50;;
34497;SDS011;20744;50.938;7.286;2023-10-31T08:08:42;12.25;;;5.53;;
34497;SDS011;20744;50.938;7.286;2023-10-31T08:11:09;6.20;;;4.72;;
34497;SDS011;20744;50.938;7.286;2023-10-31T08:13:36;6.95;;;4.80;;
34497;SDS011;20744;50.938;7.286;2023-10-31T08:16:04;12.27;;;4.78;;
34497;SDS011;20744;50.938;7.286;2023-10-31T08:18:32;7.55;;;4.22;;
34497;SDS011;20744;50.938;7.286;2023-10-31T08:20:59;5.10;;;4.10;;
34497;SDS011;20744;50.938;7.286;2023-10-31T08:23:28;5.90;;;3.88;;
34497;SDS011;20744;50.938;7.286;2023-10-31T08:25:56;7.93;;;3.75;;
34497;SDS011;20744;50.938;7.286;2023-10-31T08:28:23;4.88;;;3.33;;
34497;SDS011;20744;50.938;7.286;2023-10-31T08:30:51;5.85;;;3.78;;
34497;SDS011;20744;50.938;7.286;2023-10-31T08:33:18;7.45;;;4.15;;
34497;SDS011;20744;50.938;7.286;2023-10-31T08:35:45;6.90;;;3.85;;
34497;SDS011;20744;50.938;7.286;2023-10-31T08:38:13;6.57;;;3.60;;
34497;SDS011;20744;50.938;7.286;2023-10-31T08:40:40;6.90;;;3.40;;
34497;SDS011;20744;50.938;7.286;2023-10-31T08:43:09;8.27;;;2.97;;
34497;SDS011;20744;50.938;7.286;2023-10-31T08:45:36;10.40;;;3.03;;
34497;SDS011;20744;50.938;7.286;2023-10-31T08:48:04;4.45;;;2.55;;
34497;SDS011;20744;50.938;7.286;2023-10-31T08:50:31;6.30;;;2.70;;
34497;SDS011;20744;50.938;7.286;2023-10-31T08:52:58;7.50;;;2.78;;
34497;SDS011;20744;50.938;7.286;2023-10-31T08:55:25;8.35;;;2.80;;
34497;SDS011;20744;50.938;7.286;2023-10-31T08:57:53;6.40;;;2.65;;
34497;SDS011;20744;50.938;7.286;2023-10-31T09:00:21;7.40;;;2.83;;
34497;SDS011;20744;50.938;7.286;2023-10-31T09:02:49;7.03;;;2.63;;
34497;SDS011;20744;50.938;7.286;2023-10-31T09:05:17;6.25;;;3.00;;
34497;SDS011;20744;50.938;7.286;2023-10-31T09:07:44;8.05;;;2.90;;
34497;SDS011;20744;50.938;7.286;2023-10-31T09:10:11;7.13;;;2.80;;
34497;SDS011;20744;50.938;7.286;2023-10-31T09:12:39;4.72;;;3.00;;
34497;SDS011;20744;50.938;7.286;2023-10-31T09:15:06;9.68;;;2.75;;
34497;SDS011;20744;50.938;7.286;2023-10-31T09:17:35;4.97;;;2.80;;
34497;SDS011;20744;50.938;7.286;2023-10-31T09:20:03;7.80;;;3.08;;
34497;SDS011;20744;50.938;7.286;2023-10-31T09:22:33;6.82;;;2.80;;
34497;SDS011;20744;50.938;7.286;2023-10-31T09:25:00;6.97;;;3.10;;
34497;SDS011;20744;50.938;7.286;2023-10-31T09:27:28;7.50;;;3.10;;
34497;SDS011;20744;50.938;7.286;2023-10-31T09:29:55;6.63;;;3.40;;
34497;SDS011;20744;50.938;7.286;2023-10-31T09:32:23;6.88;;;3.30;;
34497;SDS011;20744;50.938;7.286;2023-10-31T09:34:51;4.00;;;3.15;;
34497;SDS011;20744;50.938;7.286;2023-10-31T09:37:18;5.75;;;3.53;;
34497;SDS011;20744;50.938;7.286;2023-10-31T09:39:46;5.65;;;3.40;;
34497;SDS011;20744;50.938;7.286;2023-10-31T09:42:13;12.73;;;3.30;;
34497;SDS011;20744;50.938;7.286;2023-10-31T09:44:40;11.15;;;2.78;;
34497;SDS011;20744;50.938;7.286;2023-10-31T09:47:08;3.78;;;2.50;;
34497;SDS011;20744;50.938;7.286;2023-10-31T09:49:35;5.22;;;2.80;;
34497;SDS011;20744;50.938;7.286;2023-10-31T09:52:04;5.45;;;2.75;;
34497;SDS011;20744;50.938;7.286;2023-10-31T09:54:32;5.18;;;2.55;;
34497;SDS011;20744;50.938;7.286;2023-10-31T09:57:01;3.55;;;2.15;;
34497;SDS011;20744;50.938;7.286;2023-10-31T09:59:28;9.27;;;2.80;;
34497;SDS011;20744;50.938;7.286;2023-10-31T10:01:55;3.42;;;2.05;;
34497;SDS011;20744;50.938;7.286;2023-10-31T10:04:23;5.50;;;3.65;;
34497;SDS011;20744;50.938;7.286;2023-10-31T10:06:51;5.03;;;2.00;;
34497;SDS011;20744;50.938;7.286;2023-10-31T10:09:20;5.25;;;2.05;;
34497;SDS011;20744;50.938;7.286;2023-10-31T10:11:48;7.93;;;1.98;;
34497;SDS011;20744;50.938;7.286;2023-10-31T10:14:16;3.40;;;1.90;;
34497;SDS011;20744;50.938;7.286;2023-10-31T10:16:43;8.18;;;2.17;;
34497;SDS011;20744;50.938;7.286;2023-10-31T10:19:16;2.38;;;1.65;;
34497;SDS011;20744;50.938;7.286;2023-10-31T10:21:48;2.50;;;1.20;;
34497;SDS011;20744;50.938;7.286;2023-10-31T10:24:15;3.42;;;1.60;;
34497;SDS011;20744;50.938;7.286;2023-10-31T10:26:44;3.20;;;1.25;;
34497;SDS011;20744;50.938;7.286;2023-10-31T10:29:12;4.55;;;1.30;;
34497;SDS011;20744;50.938;7.286;2023-10-31T10:31:39;6.07;;;1.08;;
34497;SDS011;20744;50.938;7.286;2023-10-31T10:34:07;3.85;;;1.10;;
34497;SDS011;20744;50.938;7.286;2023-10-31T10:36:34;2.63;;;0.98;;
34497;SDS011;20744;50.938;7.286;2023-10-31T10:39:02;3.67;;;0.80;;
34497;SDS011;20744;50.938;7.286;2023-10-31T10:41:29;2.22;;;0.98;;
34497;SDS011;20744;50.938;7.286;2023-10-31T10:44:03;2.88;;;0.77;;
34497;SDS011;20744;50.938;7.286;2023-10-31T10:46:31;2.72;;;0.90;;
34497;SDS011;20744;50.938;7.286;2023-10-31T10:48:59;9.10;;;1.40;;
34497;SDS011;20744;50.938;7.286;2023-10-31T10:51:28;4.65;;;1.00;;
34497;SDS011;20744;50.938;7.286;2023-10-31T10:53:57;4.80;;;1.02;;
34497;SDS011;20744;50.938;7.286;2023-10-31T10:56:26;4.55;;;1.10;;
34497;SDS011;20744;50.938;7.286;2023-10-31T10:58:55;2.28;;;1.10;;
34497;SDS011;20744;50.938;7.286;2023-10-31T11:01:27;2.10;;;0.90;;
34497;SDS011;20744;50.938;7.286;2023-10-31T11:03:55;2.15;;;0.80;;
34497;SDS011;20744;50.938;7.286;2023-10-31T11:06:22;3.15;;;0.90;;
34497;SDS011;20744;50.938;7.286;2023-10-31T11:08:50;3.38;;;0.80;;
34497;SDS011;20744;50.938;7.286;2023-10-31T11:11:19;2.55;;;0.77;;
34497;SDS011;20744;50.938;7.286;2023-10-31T11:13:46;4.57;;;0.90;;
34497;SDS011;20744;50.938;7.286;2023-10-31T11:16:16;3.95;;;0.70;;
34497;SDS011;20744;50.938;7.286;2023-10-31T11:18:45;3.67;;;0.85;;
34497;SDS011;20744;50.938;7.286;2023-10-31T11:21:13;2.53;;;0.52;;
34497;SDS011;20744;50.938;7.286;2023-10-31T11:23:40;2.22;;;0.57;;
34497;SDS011;20744;50.938;7.286;2023-10-31T11:26:08;3.38;;;0.63;;
34497;SDS011;20744;50.938;7.286;2023-10-31T11:28:36;5.00;;;0.63;;
34497;SDS011;20744;50.938;7.286;2023-10-31T11:31:03;2.63;;;0.40;;
34497;SDS011;20744;50.938;7.286;2023-10-31T11:33:32;3.53;;;0.60;;
34497;SDS011;20744;50.938;7.286;2023-10-31T11:36:01;1.83;;;0.63;;
34497;SDS011;20744;50.938;7.286;2023-10-31T11:38:30;3.55;;;0.73;;
34497;SDS011;20744;50.938;7.286;2023-10-31T11:40:59;2.03;;;0.50;;
34497;SDS011;20744;50.938;7.286;2023-10-31T11:43:34;2.88;;;0.63;;
34497;SDS011;20744;50.938;7.286;2023-10-31T11:46:02;1.77;;;0.57;;
34497;SDS011;20744;50.938;7.286;2023-10-31T11:48:44;3.03;;;0.60;;
34497;SDS011;20744;50.938;7.286;2023-10-31T11:51:14;1.02;;;0.30;;
34497;SDS011;20744;50.938;7.286;2023-10-31T11:53:41;1.30;;;0.50;;
34497;SDS011;20744;50.938;7.286;2023-10-31T11:56:10;2.35;;;0.70;;
34497;SDS011;20744;50.938;7.286;2023-10-31T11:58:37;0.90;;;0.40;;
34497;SDS011;20744;50.938;7.286;2023-10-31T12:01:05;1.58;;;0.60;;
34497;SDS011;20744;50.938;7.286;2023-10-31T12:03:36;1.67;;;0.50;;
34497;SDS011;20744;50.938;7.286;2023-10-31T12:06:04;1.35;;;0.50;;
34497;SDS011;20744;50.938;7.286;2023-10-31T12:08:33;4.65;;;0.75;;
34497;SDS011;20744;50.938;7.286;2023-10-31T12:11:05;1.10;;;0.50;;
34497;SDS011;20744;50.938;7.286;2023-10-31T12:13:33;1.73;;;0.40;;
34497;SDS011;20744;50.938;7.286;2023-10-31T12:16:00;4.13;;;0.68;;
34497;SDS011;20744;50.938;7.286;2023-10-31T12:18:28;1.50;;;0.40;;
34497;SDS011;20744;50.938;7.286;2023-10-31T12:20:55;2.95;;;0.57;;
34497;SDS011;20744;50.938;7.286;2023-10-31T12:23:23;2.75;;;0.70;;
34497;SDS011;20744;50.938;7.286;2023-10-31T12:25:51;4.95;;;0.88;;
34497;SDS011;20744;50.938;7.286;2023-10-31T12:28:19;10.15;;;1.10;;
34497;SDS011;20744;50.938;7.286;2023-10-31T12:30:47;2.17;;;0.73;;
34497;SDS011;20744;50.938;7.286;2023-10-31T12:33:15;3.35;;;0.80;;
34497;SDS011;20744;50.938;7.286;2023-10-31T12:35:42;8.88;;;0.90;;
34497;SDS011;20744;50.938;7.286;2023-10-31T12:38:11;6.63;;;0.90;;
34497;SDS011;20744;50.938;7.286;2023-10-31T12:40:39;2.67;;;0.80;;
34497;SDS011;20744;50.938;7.286;2023-10-31T12:43:08;3.33;;;0.70;;
34497;SDS011;20744;50.938;7.286;2023-10-31T12:45:45;1.92;;;0.50;;
34497;SDS011;20744;50.938;7.286;2023-10-31T12:48:15;3.83;;;0.60;;
34497;SDS011;20744;50.938;7.286;2023-10-31T12:50:42;3.33;;;0.80;;
34497;SDS011;20744;50.938;7.286;2023-10-31T12:53:09;8.85;;;1.00;;
34497;SDS011;20744;50.938;7.286;2023-10-31T12:55:40;5.68;;;0.75;;
34497;SDS011;20744;50.938;7.286;2023-10-31T12:58:11;2.03;;;0.55;;
34497;SDS011;20744;50.938;7.286;2023-10-31T13:00:46;2.63;;;0.70;;
34497;SDS011;20744;50.938;7.286;2023-10-31T13:03:14;6.75;;;0.90;;
34497;SDS011;20744;50.938;7.286;2023-10-31T13:05:41;8.65;;;1.08;;
34497;SDS011;20744;50.938;7.286;2023-10-31T13:08:10;3.78;;;0.75;;
34497;SDS011;20744;50.938;7.286;2023-10-31T13:10:41;8.63;;;0.90;;
34497;SDS011;20744;50.938;7.286;2023-10-31T13:13:10;2.92;;;0.60;;
34497;SDS011;20744;50.938;7.286;2023-10-31T13:15:38;4.22;;;0.80;;
34497;SDS011;20744;50.938;7.286;2023-10-31T13:18:05;4.97;;;0.70;;
34497;SDS011;20744;50.938;7.286;2023-10-31T13:20:36;80.88;;;4.38;;
34497;SDS011;20744;50.938;7.286;2023-10-31T13:23:03;7.95;;;0.70;;
34497;SDS011;20744;50.938;7.286;2023-10-31T13:25:30;5.65;;;0.65;;
34497;SDS011;20744;50.938;7.286;2023-10-31T13:27:57;8.80;;;0.68;;
34497;SDS011;20744;50.938;7.286;2023-10-31T13:30:26;3.80;;;0.68;;
34497;SDS011;20744;50.938;7.286;2023-10-31T13:32:54;3.30;;;0.82;;
34497;SDS011;20744;50.938;7.286;2023-10-31T13:35:22;4.53;;;0.65;;
34497;SDS011;20744;50.938;7.286;2023-10-31T13:37:50;2.63;;;0.88;;
34497;SDS011;20744;50.938;7.286;2023-10-31T13:40:17;2.40;;;0.80;;
34497;SDS011;20744;50.938;7.286;2023-10-31T13:42:44;4.38;;;0.60;;
34497;SDS011;20744;50.938;7.286;2023-10-31T13:45:12;4.90;;;0.88;;
34497;SDS011;20744;50.938;7.286;2023-10-31T13:47:40;3.33;;;0.90;;
34497;SDS011;20744;50.938;7.286;2023-10-31T13:50:08;6.70;;;1.00;;
34497;SDS011;20744;50.938;7.286;2023-10-31T13:52:35;4.00;;;0.80;;
34497;SDS011;20744;50.938;7.286;2023-10-31T13:55:04;10.27;;;0.65;;
34497;SDS011;20744;50.938;7.286;2023-10-31T13:57:32;6.32;;;1.02;;
34497;SDS011;20744;50.938;7.286;2023-10-31T13:59:59;9.57;;;1.08;;
34497;SDS011;20744;50.938;7.286;2023-10-31T14:02:26;13.18;;;1.00;;
34497;SDS011;20744;50.938;7.286;2023-10-31T14:04:56;4.07;;;0.52;;
34497;SDS011;20744;50.938;7.286;2023-10-31T14:07:23;3.65;;;0.77;;
34497;SDS011;20744;50.938;7.286;2023-10-31T14:09:51;6.93;;;0.80;;
34497;SDS011;20744;50.938;7.286;2023-10-31T14:12:18;4.40;;;0.63;;
34497;SDS011;20744;50.938;7.286;2023-10-31T14:14:45;6.43;;;0.82;;
34497;SDS011;20744;50.938;7.286;2023-10-31T14:17:14;2.65;;;0.85;;
34497;SDS011;20744;50.938;7.286;2023-10-31T14:19:41;3.20;;;0.63;;
34497;SDS011;20744;50.938;7.286;2023-10-31T14:22:11;6.18;;;0.75;;
34497;SDS011;20744;50.938;7.286;2023-10-31T14:24:39;3.72;;;0.77;;
34497;SDS011;20744;50.938;7.286;2023-10-31T14:27:06;3.42;;;0.93;;
34497;SDS011;20744;50.938;7.286;2023-10-31T14:29:33;6.90;;;0.90;;
34497;SDS011;20744;50.938;7.286;2023-10-31T14:32:05;2.92;;;0.50;;
34497;SDS011;20744;50.938;7.286;2023-10-31T14:34:32;3.28;;;0.80;;
34497;SDS011;20744;50.938;7.286;2023-10-31T14:36:59;5.85;;;1.10;;
34497;SDS011;20744;50.938;7.286;2023-10-31T14:39:28;6.78;;;1.00;;
34497;SDS011;20744;50.938;7.286;2023-10-31T14:41:55;1.45;;;0.60;;
34497;SDS011;20744;50.938;7.286;2023-10-31T14:44:22;7.40;;;0.73;;
34497;SDS011;20744;50.938;7.286;2023-10-31T14:46:49;8.32;;;0.80;;
34497;SDS011;20744;50.938;7.286;2023-10-31T14:49:17;10.30;;;1.20;;